Hauptseite
METAR-TAF:

METAR-TAF

Flughäfen :

Flughafen Kopenhagen-Kastrup

Kopenhagen, Dänemark

Breite: 55-37N, Länge: 012-39E, Höhe: 5 m

Beobachtung

Neuester Wetterbericht von vor 44 Minuten, um 08:50 UTC
Wind 8 kt aus West/Südwest, variierte zwischen Südwest und West
Temperatur 17°C
Luftfeuchtigkeit 68%
Luftdruck 1015 hPa
Sichtweite 10 km oder mehr

METAR: EKCH 180850Z AUTO 25008KT 220V280 9999 FEW026/// 17/11 Q1015 NOSIG

Zeit: 11:34 (09:34 UTC)

Prognose

Neuester Wetterbericht von vor 4 Stunden und 31 Minuten, um 05:03 UTC
Gültige Prognose vom 18 um 06 UTC bis 19 um 06 UTC
Wind 8 kt aus West
Sichtweite 10 km oder mehr
Leicht bewölkt in der Höhe von 3000 ft

TAF: EKCH 180503Z 1806/1906 26008KT 9999 FEW030

Wetterbeobachtungen und Prognosen von mehr als 4000 Flughäfen (METAR und TAF Bericht).

Die verfügbaren Stationen werden durch gelbe und rote Markierungen auf der Karte dargestellt.

Führen Sie die Maus auf sie, um den Namen der Station zu sehen.

Darauf klicken, um die Beobachtung von Wetterbeobachtungen und Prognosen zu sehen.

Um die Karte zu ändern : klicken Sie auf den grünen Tasten mit einem schwarzen Kreuz Zum Vergrößern, auf den grünen Button mit einem Gedankenstrich zu verkleinern, oder auf die grünen Pfeile für benachbarte Karten.


METAR-TAF: